Ely Municipal Airport
KELO : rendu visible

Aérodrome :











RETROUVEZ-NOUS SUR...

 
LOGIN :

S'inscrire | Disclaimer

   EN    FR    IT 

 









Légende :    VFR   VFR Marginal   IFR   IFR Intensif   IFR Très Intensif
Visi : 
Plafond : 
>= 8 km
>= 3000ft
5 à 8 km
1000 à 3000 ft
1500m à 5 km
500 à 1000 ft
800 à 1500m
200 à 500 ft
< 800m
< 200 ft
Symboles :   Orages  Brouillard  Fortes neiges  Fortes précipitations  Vent > 20 kt






- Altitude de l'aérodrome : 1456 ft


KELO - Ely Municipal

DERNIER METAR :
  • 061435Z AUTO 31006KT 10SM BKN014 M14/M16 A3026 RMK AO2

METARs EXPIRÉS :
  • 061416Z AUTO 32008KT 10SM BKN014 M13/M16 A3025 RMK AO2
  • 061355Z AUTO 00000KT 7SM -SN OVC014 M13/M16 A3025 RMK AO2
  • 061336Z AUTO 31003KT 10SM -SN OVC014 M13/M16 A3024 RMK AO2
  • 061315Z AUTO 29007KT 10SM -SN OVC016 M13/M16 A3024 RMK AO2
  • 061255Z AUTO 31008KT 10SM -SN OVC016 M13/M16 A3024 RMK AO2
  • 061235Z AUTO 30008KT 10SM -SN OVC016 M13/M16 A3023 RMK AO2
  • 061218Z AUTO 31010G16KT 7SM -SN OVC016 M12/M15 A3023 RMK AO2

TAF N/A



MET'MAP, la Météo Aéronautique d'un coup d'oeil ! - Copyright ORBIFLY Décembre 2007 - Disclaimer

ORBIFLY MET'MAP TEAM :

Programmation & Développement : Alexandra Zaïnal
Sur une idée originale de : Baudouin d'Aumeries
Assistance à la programmation : Marc-Olivier Méhu
Soutien technique & logistique : Manuel Goepfert

Contact : metmap@orbifly.com




SOURCES & CREDITS :

   NOAA       Earth
Advisory